createdAt,value
2018-07-17T16:05:40.982Z,1008.24
2018-07-17T16:06:40.988Z,1008.14
2018-07-17T16:07:40.883Z,1008.15
2018-07-17T16:08:40.878Z,1008.22
2018-07-17T16:09:40.863Z,1008.39
2018-07-17T16:10:40.853Z,1008.45
2018-07-17T16:11:40.866Z,1008.23
2018-07-17T16:12:40.834Z,1008.25
2018-07-17T16:13:40.938Z,1008.70
2018-07-17T16:14:40.819Z,1008.76
2018-07-17T16:15:40.810Z,1008.22
2018-07-17T16:16:40.820Z,1008.13
2018-07-17T16:17:40.783Z,1008.18
2018-07-17T16:18:40.786Z,1008.17
2018-07-17T16:19:40.768Z,1008.15
2018-07-17T16:20:40.768Z,1008.06
2018-07-17T16:21:40.767Z,1008.06
2018-07-17T16:22:40.748Z,1008.07
2018-07-17T16:23:40.738Z,1008.07
2018-07-17T16:24:40.719Z,1008.15
2018-07-17T16:25:40.704Z,1008.12
2018-07-17T16:26:40.831Z,1008.16
2018-07-17T16:27:40.686Z,1008.12
2018-07-17T16:28:40.684Z,1008.16
2018-07-17T16:29:40.661Z,1008.20
2018-07-17T16:30:40.668Z,1008.27
2018-07-17T16:31:40.668Z,1008.30
2018-07-17T16:32:40.628Z,1008.32
2018-07-17T16:33:40.620Z,1008.47
2018-07-17T16:34:40.613Z,1008.56
2018-07-17T16:35:40.597Z,1008.90
2018-07-17T16:36:40.615Z,1008.94
2018-07-17T16:37:40.576Z,1008.99
2018-07-17T16:38:40.570Z,1008.82
2018-07-17T16:39:40.569Z,1008.86
2018-07-17T16:40:40.545Z,1008.92
2018-07-17T16:41:40.539Z,1008.94
2018-07-17T16:42:40.551Z,1009.07
2018-07-17T16:43:40.516Z,1009.01
2018-07-17T16:44:40.506Z,1009.02
2018-07-17T16:45:40.493Z,1009.07
2018-07-17T16:46:40.485Z,1009.14
2018-07-17T16:47:40.496Z,1009.03
2018-07-17T16:48:40.461Z,1009.20
2018-07-17T16:49:40.561Z,1009.26
2018-07-17T16:50:40.443Z,1009.61
2018-07-17T16:51:40.431Z,1009.52
2018-07-17T16:52:40.451Z,1009.32
2018-07-17T16:53:40.410Z,1009.50
2018-07-17T16:54:40.401Z,1009.45
2018-07-17T16:55:40.389Z,1009.48
2018-07-17T16:56:40.381Z,1009.54
2018-07-17T16:57:40.391Z,1009.68
2018-07-17T16:58:40.356Z,1009.76
2018-07-17T16:59:40.344Z,1009.69
2018-07-17T17:00:40.334Z,1009.81
2018-07-17T17:01:40.325Z,1009.77
2018-07-17T17:02:40.336Z,1009.77
2018-07-17T17:03:40.301Z,1009.88
2018-07-17T17:04:40.298Z,1009.84
2018-07-17T17:05:40.278Z,1009.89
2018-07-17T17:06:40.267Z,1009.90
2018-07-17T17:07:40.281Z,1009.87
2018-07-17T17:08:40.246Z,1009.85
2018-07-17T17:09:40.234Z,1009.91
2018-07-17T17:10:40.223Z,1009.94
2018-07-17T17:11:40.212Z,1009.97
2018-07-17T17:12:40.226Z,1009.98
2018-07-17T17:13:40.189Z,1010.02
2018-07-17T17:14:40.177Z,1010.04
2018-07-17T17:15:40.167Z,1010.09
2018-07-17T17:16:40.161Z,1010.10
2018-07-17T17:17:40.169Z,1010.16
2018-07-17T17:18:40.133Z,1010.15
2018-07-17T17:19:40.132Z,1010.16
2018-07-17T17:20:40.111Z,1010.12
2018-07-17T17:21:40.105Z,1010.10
2018-07-17T17:22:40.114Z,1010.07
2018-07-17T17:23:40.080Z,1010.06
2018-07-17T17:24:40.158Z,1010.05
2018-07-17T17:25:40.058Z,1010.05
2018-07-17T17:26:40.048Z,1010.04
2018-07-17T17:27:40.062Z,1010.04
2018-07-17T17:28:40.027Z,1009.98
2018-07-17T17:29:40.017Z,1009.93
2018-07-17T17:30:40.009Z,1009.92
2018-07-17T17:31:39.995Z,1009.91
2018-07-17T17:32:40.047Z,1009.94
2018-07-17T17:33:39.977Z,1009.94
2018-07-17T17:34:39.968Z,1009.92
2018-07-17T17:35:39.954Z,1009.95
2018-07-17T17:36:39.997Z,1010.02
2018-07-17T17:37:39.954Z,1009.98
2018-07-17T17:38:39.919Z,1009.96
2018-07-17T17:39:39.974Z,1009.94
2018-07-17T17:40:39.980Z,1009.93
2018-07-17T17:41:39.887Z,1009.86
2018-07-17T17:42:39.901Z,1009.76
2018-07-17T17:43:39.865Z,1009.77
2018-07-17T17:44:39.854Z,1009.83
2018-07-17T17:45:39.844Z,1009.78
2018-07-17T17:46:39.835Z,1009.78
2018-07-17T17:47:39.849Z,1009.75
2018-07-17T17:48:39.815Z,1009.74
2018-07-17T17:49:39.801Z,1009.72
2018-07-17T17:50:39.791Z,1009.70
2018-07-17T17:51:39.806Z,1009.66
2018-07-17T17:52:39.795Z,1009.65
2018-07-17T17:53:39.758Z,1009.65
2018-07-17T17:54:39.750Z,1009.64
2018-07-17T17:55:39.746Z,1009.66
2018-07-17T17:56:39.728Z,1009.63
2018-07-17T17:57:39.742Z,1009.66
2018-07-17T17:58:39.704Z,1009.62
2018-07-17T17:59:39.695Z,1009.62
2018-07-17T18:00:39.685Z,1009.64
2018-07-17T18:01:39.674Z,1009.62
2018-07-17T18:02:39.686Z,1009.65
2018-07-17T18:03:39.652Z,1009.66
2018-07-17T18:04:39.640Z,1009.69
2018-07-17T18:05:39.632Z,1009.68
2018-07-17T18:06:39.619Z,1009.73
2018-07-17T18:07:39.637Z,1009.72
2018-07-17T18:08:39.604Z,1009.76
2018-07-17T18:09:39.589Z,1009.80
2018-07-17T18:10:39.577Z,1009.73
2018-07-17T18:11:39.566Z,1009.77
2018-07-17T18:12:39.579Z,1009.78
2018-07-17T18:13:39.547Z,1009.84
2018-07-17T18:14:39.536Z,1009.85
2018-07-17T18:15:39.527Z,1009.85
2018-07-17T18:16:39.512Z,1009.87
2018-07-17T18:17:39.560Z,1009.86
2018-07-17T18:18:39.515Z,1009.80
2018-07-17T18:19:39.499Z,1009.82
2018-07-17T18:20:39.468Z,1009.85
2018-07-17T18:21:39.458Z,1009.82
2018-07-17T18:22:39.469Z,1009.82
2018-07-17T18:23:39.436Z,1009.83
2018-07-17T18:24:39.424Z,1009.87
2018-07-17T18:25:39.416Z,1009.94
2018-07-17T18:26:39.404Z,1009.97
2018-07-17T18:27:39.395Z,1009.91
2018-07-17T18:28:39.405Z,1009.94
2018-07-17T18:29:39.374Z,1009.93
2018-07-17T18:30:39.360Z,1009.90
2018-07-17T18:31:39.350Z,1009.94
2018-07-17T18:32:39.339Z,1009.92
2018-07-17T18:33:39.353Z,1009.93
2018-07-17T18:34:39.317Z,1009.94
2018-07-17T18:35:39.308Z,1009.94
2018-07-17T18:36:39.298Z,1009.92
2018-07-17T18:37:39.290Z,1009.95
2018-07-17T18:38:39.296Z,1009.97
2018-07-17T18:39:39.264Z,1009.96
2018-07-17T18:40:39.253Z,1009.94
2018-07-17T18:41:39.316Z,1009.98
2018-07-17T18:42:39.232Z,1010.00
2018-07-17T18:43:39.241Z,1009.99
2018-07-17T18:44:39.208Z,1010.02
2018-07-17T18:45:39.198Z,1010.05
2018-07-17T18:46:39.187Z,1010.04
2018-07-17T18:47:39.184Z,1010.04
2018-07-17T18:48:39.188Z,1010.10
2018-07-17T18:49:39.156Z,1010.05
2018-07-17T18:50:39.142Z,1010.09
2018-07-17T18:51:39.130Z,1010.10
2018-07-17T18:52:39.121Z,1010.05
2018-07-17T18:53:39.148Z,1010.09
2018-07-17T18:54:39.101Z,1010.09
2018-07-17T18:55:39.088Z,1010.09
2018-07-17T18:56:39.077Z,1010.04
2018-07-17T18:57:39.065Z,1010.10
2018-07-17T18:58:39.077Z,1010.08
2018-07-17T18:59:39.051Z,1010.07
2018-07-17T19:00:39.032Z,1010.07
2018-07-17T19:01:39.020Z,1010.10
2018-07-17T19:02:39.010Z,1010.11
2018-07-17T19:03:39.025Z,1010.15
2018-07-17T19:04:38.988Z,1010.13
2018-07-17T19:05:38.976Z,1010.15
2018-07-17T19:06:38.966Z,1010.15
2018-07-17T19:07:38.956Z,1010.19
2018-07-17T19:08:38.967Z,1010.17
2018-07-17T19:09:38.933Z,1010.23
2018-07-17T19:10:38.922Z,1010.23
2018-07-17T19:11:38.912Z,1010.24
2018-07-17T19:12:38.901Z,1010.25
2018-07-17T19:13:38.914Z,1010.23
2018-07-17T19:14:38.883Z,1010.26
2018-07-17T19:15:38.867Z,1010.29
2018-07-17T19:16:38.855Z,1010.27
2018-07-17T19:17:38.845Z,1010.33
2018-07-17T19:18:38.858Z,1010.34
2018-07-17T19:19:38.822Z,1010.36
2018-07-17T19:20:38.812Z,1010.34
2018-07-17T19:21:38.801Z,1010.35
2018-07-17T19:22:38.788Z,1010.36
2018-07-17T19:23:38.802Z,1010.43
2018-07-17T19:24:38.877Z,1010.37
2018-07-17T19:25:38.758Z,1010.41
2018-07-17T19:26:38.746Z,1010.44
2018-07-17T19:27:38.735Z,1010.48
2018-07-17T19:28:38.749Z,1010.51
2018-07-17T19:29:38.712Z,1010.46
2018-07-17T19:30:38.708Z,1010.47
2018-07-17T19:31:38.690Z,1010.49
2018-07-17T19:32:38.680Z,1010.45
2018-07-17T19:33:38.692Z,1010.46
2018-07-17T19:34:38.657Z,1010.45
2018-07-17T19:35:38.694Z,1010.47
2018-07-17T19:36:38.635Z,1010.36
2018-07-17T19:37:38.625Z,1010.43
2018-07-17T19:38:38.636Z,1010.37
2018-07-17T19:39:38.603Z,1010.42
2018-07-17T19:40:38.598Z,1010.44
2018-07-17T19:41:38.581Z,1010.41
2018-07-17T19:42:38.568Z,1010.42
2018-07-17T19:43:38.580Z,1010.42
2018-07-17T19:44:38.547Z,1010.43
2018-07-17T19:45:38.536Z,1010.42
2018-07-17T19:46:38.526Z,1010.39
2018-07-17T19:47:38.514Z,1010.46
2018-07-17T19:48:38.527Z,1010.49
2018-07-17T19:49:38.492Z,1010.49
2018-07-17T19:50:38.480Z,1010.50
2018-07-17T19:51:38.468Z,1010.48
2018-07-17T19:52:38.481Z,1010.47
2018-07-17T19:53:38.449Z,1010.52
2018-07-17T19:54:38.461Z,1010.48
2018-07-17T19:55:38.425Z,1010.54
2018-07-17T19:56:38.414Z,1010.50
2018-07-17T19:57:38.405Z,1010.51
2018-07-17T19:58:38.395Z,1010.57
2018-07-17T19:59:38.407Z,1010.53
2018-07-17T20:00:38.370Z,1010.52
2018-07-17T20:01:38.360Z,1010.50
2018-07-17T20:02:38.348Z,1010.49
2018-07-17T20:03:38.338Z,1010.53
2018-07-17T20:04:38.354Z,1010.51
2018-07-17T20:05:38.315Z,1010.45
2018-07-17T20:06:38.305Z,1010.48
2018-07-17T20:07:38.292Z,1010.49
2018-07-17T20:08:38.389Z,1010.47
2018-07-17T20:09:38.295Z,1010.49
2018-07-17T20:10:38.259Z,1010.51
2018-07-17T20:11:38.248Z,1010.52
2018-07-17T20:12:38.238Z,1010.50
2018-07-17T20:13:38.226Z,1010.52
2018-07-17T20:14:38.239Z,1010.53
2018-07-17T20:15:38.206Z,1010.54
2018-07-17T20:16:38.193Z,1010.55
2018-07-17T20:17:38.184Z,1010.58
2018-07-17T20:18:38.171Z,1010.60
2018-07-17T20:19:38.186Z,1010.63
2018-07-17T20:20:38.149Z,1010.72
2018-07-17T20:21:38.141Z,1010.71
2018-07-17T20:22:38.127Z,1010.68
2018-07-17T20:23:38.117Z,1010.75
2018-07-17T20:24:38.130Z,1010.73
2018-07-17T20:25:38.098Z,1010.73
2018-07-17T20:26:38.114Z,1010.77
2018-07-17T20:27:38.074Z,1010.75
2018-07-17T20:28:38.062Z,1010.79
2018-07-17T20:29:38.078Z,1010.77
2018-07-17T20:30:38.040Z,1010.77
2018-07-17T20:31:38.028Z,1010.78
2018-07-17T20:32:38.017Z,1010.86
2018-07-17T20:33:38.035Z,1010.84
2018-07-17T20:34:38.019Z,1010.89
2018-07-17T20:35:37.985Z,1010.92
2018-07-17T20:36:37.972Z,1010.95
2018-07-17T20:37:37.963Z,1010.99
2018-07-17T20:38:37.951Z,1010.97
2018-07-17T20:39:37.963Z,1010.95
2018-07-17T20:40:37.929Z,1011.03
2018-07-17T20:41:37.918Z,1011.01
2018-07-17T20:42:37.914Z,1011.03
2018-07-17T20:43:37.896Z,1011.00
2018-07-17T20:44:37.909Z,1010.96
2018-07-17T20:45:37.874Z,1010.95
2018-07-17T20:46:37.941Z,1010.96
2018-07-17T20:47:37.852Z,1010.98
2018-07-17T20:48:37.841Z,1010.98
2018-07-17T20:49:37.853Z,1010.92
2018-07-17T20:50:37.821Z,1010.92
2018-07-17T20:51:37.811Z,1010.91
2018-07-17T20:52:37.899Z,1010.91
2018-07-17T20:53:37.788Z,1010.92
2018-07-17T20:54:37.805Z,1010.95
2018-07-17T20:55:37.765Z,1011.02
2018-07-17T20:56:37.756Z,1010.98
2018-07-17T20:57:37.746Z,1011.02
2018-07-17T20:58:37.734Z,1010.99
2018-07-17T20:59:37.746Z,1011.02
2018-07-17T21:00:37.710Z,1011.01
2018-07-17T21:01:37.698Z,1011.02
2018-07-17T21:02:37.690Z,1011.00
2018-07-17T21:03:37.676Z,1010.99
2018-07-17T21:04:37.691Z,1011.04
2018-07-17T21:05:37.654Z,1011.10
2018-07-17T21:06:37.644Z,1011.09
2018-07-17T21:07:37.633Z,1011.09
2018-07-17T21:08:37.623Z,1011.07
2018-07-17T21:09:37.636Z,1011.05
2018-07-17T21:10:37.603Z,1011.07
2018-07-17T21:11:37.589Z,1011.11
2018-07-17T21:12:37.579Z,1011.16
2018-07-17T21:13:37.567Z,1011.13
2018-07-17T21:14:37.579Z,1011.10
2018-07-17T21:15:37.545Z,1011.09
2018-07-17T21:16:37.534Z,1011.15
2018-07-17T21:17:37.524Z,1011.18
2018-07-17T21:18:37.513Z,1011.22
2018-07-17T21:19:37.525Z,1011.22
2018-07-17T21:20:37.491Z,1011.27
2018-07-17T21:21:37.480Z,1011.28
2018-07-17T21:22:37.469Z,1011.26
2018-07-17T21:23:37.458Z,1011.30
2018-07-17T21:24:37.471Z,1011.32
2018-07-17T21:25:37.436Z,1011.34
2018-07-17T21:26:37.426Z,1011.38
2018-07-17T21:27:37.416Z,1011.36
2018-07-17T21:28:37.403Z,1011.35
2018-07-17T21:29:37.417Z,1011.36
2018-07-17T21:30:37.381Z,1011.35
2018-07-17T21:31:37.371Z,1011.36
2018-07-17T21:32:37.359Z,1011.38
2018-07-17T21:33:37.349Z,1011.43
2018-07-17T21:34:37.339Z,1011.40
2018-07-17T21:35:37.349Z,1011.39
2018-07-17T21:36:37.316Z,1011.41
2018-07-17T21:37:37.304Z,1011.39
2018-07-17T21:38:37.293Z,1011.38
2018-07-17T21:39:37.287Z,1011.41
2018-07-17T21:40:37.296Z,1011.38
2018-07-17T21:41:37.260Z,1011.38
2018-07-17T21:42:37.250Z,1011.39
2018-07-17T21:43:37.238Z,1011.43
2018-07-17T21:44:37.230Z,1011.42
2018-07-17T21:45:37.243Z,1011.43
2018-07-17T21:46:37.207Z,1011.41
2018-07-17T21:47:37.195Z,1011.44
2018-07-17T21:48:37.185Z,1011.46
2018-07-17T21:49:37.248Z,1011.46
2018-07-17T21:50:37.185Z,1011.45
2018-07-17T21:51:37.151Z,1011.50
2018-07-17T21:52:37.142Z,1011.50
2018-07-17T21:53:37.130Z,1011.46
2018-07-17T21:54:37.120Z,1011.51
2018-07-17T21:55:37.131Z,1011.47
2018-07-17T21:56:37.096Z,1011.55
2018-07-17T21:57:37.087Z,1011.52
2018-07-17T21:58:37.075Z,1011.53
2018-07-17T21:59:37.064Z,1011.55
2018-07-17T22:00:37.077Z,1011.56
2018-07-17T22:01:37.042Z,1011.53
2018-07-17T22:02:37.032Z,1011.54
2018-07-17T22:03:37.041Z,1011.51
2018-07-17T22:04:37.009Z,1011.54
2018-07-17T22:05:37.098Z,1011.61
2018-07-17T22:06:36.987Z,1011.61
2018-07-17T22:07:36.977Z,1011.64
2018-07-17T22:08:36.965Z,1011.62
2018-07-17T22:09:36.955Z,1011.62
2018-07-17T22:10:36.966Z,1011.60
2018-07-17T22:11:36.932Z,1011.68
2018-07-17T22:12:36.925Z,1011.64
2018-07-17T22:13:36.910Z,1011.62
2018-07-17T22:14:36.900Z,1011.65
2018-07-17T22:15:36.913Z,1011.65
2018-07-17T22:16:36.878Z,1011.66
2018-07-17T22:17:36.867Z,1011.68
2018-07-17T22:18:36.861Z,1011.69
2018-07-17T22:19:36.847Z,1011.68
2018-07-17T22:20:36.858Z,1011.66
2018-07-17T22:21:36.826Z,1011.72
2018-07-17T22:22:36.812Z,1011.65
2018-07-17T22:23:36.800Z,1011.67
2018-07-17T22:24:36.789Z,1011.64
2018-07-17T22:25:36.805Z,1011.65
2018-07-17T22:26:36.768Z,1011.63
2018-07-17T22:27:36.757Z,1011.64
2018-07-17T22:28:36.748Z,1011.69
2018-07-17T22:29:36.735Z,1011.78
2018-07-17T22:30:36.749Z,1011.78
2018-07-17T22:31:36.713Z,1011.77
2018-07-17T22:32:36.702Z,1011.77
2018-07-17T22:33:36.692Z,1011.79
2018-07-17T22:34:36.683Z,1011.78
2018-07-17T22:35:36.693Z,1011.83
2018-07-17T22:36:36.664Z,1011.77
2018-07-17T22:37:36.648Z,1011.82
2018-07-17T22:38:36.636Z,1011.82
2018-07-17T22:39:36.627Z,1011.82
2018-07-17T22:40:36.638Z,1011.82
2018-07-17T22:41:36.603Z,1011.82
2018-07-17T22:42:36.593Z,1011.80
2018-07-17T22:43:36.582Z,1011.84
2018-07-17T22:44:36.570Z,1011.84
2018-07-17T22:45:36.583Z,1011.85
2018-07-17T22:46:36.548Z,1011.85
2018-07-17T22:47:36.538Z,1011.79
2018-07-17T22:48:36.529Z,1011.78
2018-07-17T22:49:36.515Z,1011.85
2018-07-17T22:50:36.528Z,1011.83
2018-07-17T22:51:36.494Z,1011.84
2018-07-17T22:52:36.483Z,1011.86
2018-07-17T22:53:36.475Z,1011.88
2018-07-17T22:54:36.462Z,1011.87
2018-07-17T22:55:36.473Z,1011.86
2018-07-17T22:56:36.439Z,1011.90
2018-07-17T22:57:36.430Z,1011.88
2018-07-17T22:58:36.417Z,1011.89
2018-07-17T22:59:36.405Z,1011.93
2018-07-17T23:00:36.420Z,1011.94
2018-07-17T23:01:36.389Z,1011.92
2018-07-17T23:02:36.374Z,1011.95
2018-07-17T23:03:36.363Z,1011.93
2018-07-17T23:04:36.352Z,1011.96
2018-07-17T23:05:36.364Z,1011.98
2018-07-17T23:06:36.332Z,1011.95
2018-07-17T23:07:36.320Z,1012.02
2018-07-17T23:08:36.308Z,1011.96
2018-07-17T23:09:36.297Z,1011.98
2018-07-17T23:10:36.313Z,1011.98
2018-07-17T23:11:36.274Z,1011.98
2018-07-17T23:12:36.264Z,1011.98
2018-07-17T23:13:36.254Z,1012.00
2018-07-17T23:14:36.243Z,1012.05
2018-07-17T23:15:36.234Z,1012.03
2018-07-17T23:16:36.243Z,1012.03
2018-07-17T23:17:36.212Z,1012.00
2018-07-17T23:18:36.199Z,1012.02
2018-07-17T23:19:36.189Z,1012.04
2018-07-17T23:20:36.178Z,1011.99
2018-07-17T23:21:36.189Z,1012.00
2018-07-17T23:22:36.155Z,1011.98
2018-07-17T23:23:36.144Z,1012.01
2018-07-17T23:24:36.137Z,1012.04
2018-07-17T23:25:36.125Z,1012.04
2018-07-17T23:26:36.135Z,1012.05
2018-07-17T23:27:36.102Z,1012.04
2018-07-17T23:28:36.090Z,1012.03
2018-07-17T23:29:36.078Z,1012.07
2018-07-17T23:30:36.069Z,1012.05
2018-07-17T23:31:36.079Z,1012.13
2018-07-17T23:32:36.051Z,1012.09
2018-07-17T23:33:36.036Z,1012.12
2018-07-17T23:34:36.026Z,1012.15
2018-07-17T23:35:36.015Z,1012.14
2018-07-17T23:36:36.025Z,1012.17
2018-07-17T23:37:35.998Z,1012.18
2018-07-17T23:38:35.981Z,1012.19
2018-07-17T23:39:35.969Z,1012.13
2018-07-17T23:40:35.958Z,1012.17
2018-07-17T23:41:35.973Z,1012.20
2018-07-17T23:42:35.938Z,1012.14
2018-07-17T23:43:35.933Z,1012.13
2018-07-17T23:44:35.915Z,1012.19
2018-07-17T23:45:35.904Z,1012.18
2018-07-17T23:46:35.918Z,1012.17
2018-07-17T23:47:35.883Z,1012.19
2018-07-17T23:48:35.871Z,1012.19
2018-07-17T23:49:35.860Z,1012.19
2018-07-17T23:50:35.850Z,1012.17
2018-07-17T23:51:35.862Z,1012.17
2018-07-17T23:52:35.828Z,1012.20
2018-07-17T23:53:35.815Z,1012.22
2018-07-17T23:54:35.806Z,1012.20
2018-07-17T23:55:35.796Z,1012.21
2018-07-17T23:56:35.809Z,1012.17
2018-07-17T23:57:35.773Z,1012.15
2018-07-17T23:58:35.762Z,1012.13
2018-07-17T23:59:35.751Z,1012.18
